createdAt,value
2022-08-11T00:01:27.807Z,1.70
2022-08-11T00:04:00.740Z,1.70
2022-08-11T00:06:39.283Z,1.90
2022-08-11T00:09:15.370Z,1.83
2022-08-11T00:11:58.402Z,2.30
2022-08-11T00:14:36.000Z,2.00
2022-08-11T00:17:09.869Z,1.80
2022-08-11T00:20:14.998Z,1.60
2022-08-11T00:22:34.253Z,2.10
2022-08-11T00:25:13.930Z,1.90
2022-08-11T00:27:42.011Z,2.00
2022-08-11T00:30:12.443Z,1.70
2022-08-11T00:32:43.407Z,1.83
2022-08-11T00:35:54.133Z,1.90
2022-08-11T00:38:06.614Z,1.90
2022-08-11T00:41:11.423Z,2.03
2022-08-11T00:44:10.236Z,1.40
2022-08-11T00:47:15.170Z,1.67
2022-08-11T00:50:16.080Z,1.90
2022-08-11T00:53:12.942Z,1.70
2022-08-11T00:56:21.492Z,2.17
2022-08-11T00:59:41.118Z,1.70
2022-08-11T01:02:47.128Z,2.90
2022-08-11T01:05:59.560Z,1.70
2022-08-11T01:09:22.774Z,1.87
2022-08-11T01:12:06.260Z,1.97
2022-08-11T01:15:15.352Z,2.10
2022-08-11T01:18:38.061Z,1.80
2022-08-11T01:21:51.110Z,1.87
2022-08-11T01:24:57.748Z,2.03
2022-08-11T01:27:54.933Z,1.40
2022-08-11T01:30:49.076Z,1.50
2022-08-11T01:34:13.177Z,1.70
2022-08-11T01:37:19.730Z,1.87
2022-08-11T01:40:05.195Z,1.80
2022-08-11T01:43:33.852Z,1.90
2022-08-11T01:46:28.792Z,1.63
2022-08-11T01:50:01.024Z,1.47
2022-08-11T01:52:30.254Z,1.60
2022-08-11T01:55:27.950Z,1.33
2022-08-11T01:58:40.657Z,1.63
2022-08-11T02:02:46.161Z,1.53
2022-08-11T02:06:24.688Z,1.90
2022-08-11T02:09:23.830Z,2.10
2022-08-11T02:11:56.366Z,2.43
2022-08-11T02:14:53.637Z,2.00
2022-08-11T02:17:59.365Z,2.10
2022-08-11T02:21:00.678Z,2.17
2022-08-11T02:24:04.556Z,2.40
2022-08-11T02:27:06.795Z,2.07
2022-08-11T02:29:44.801Z,2.23
2022-08-11T02:33:02.648Z,2.57
2022-08-11T02:35:45.840Z,2.10
2022-08-11T02:38:43.301Z,2.00
2022-08-11T02:42:32.060Z,2.33
2022-08-11T02:45:32.081Z,1.83
2022-08-11T02:49:08.562Z,3.20
2022-08-11T02:51:57.857Z,2.33
2022-08-11T02:54:59.390Z,2.03
2022-08-11T02:57:43.471Z,1.90
2022-08-11T03:00:13.592Z,2.30
2022-08-11T03:02:49.183Z,2.13
2022-08-11T03:05:28.130Z,2.10
2022-08-11T03:08:49.236Z,2.03
2022-08-11T03:11:53.730Z,2.23
2022-08-11T03:14:46.205Z,2.20
2022-08-11T03:17:38.490Z,2.40
2022-08-11T03:20:33.376Z,2.20
2022-08-11T03:23:24.213Z,2.23
2022-08-11T03:26:14.879Z,2.87
2022-08-11T03:29:25.132Z,2.17
2022-08-11T03:32:33.326Z,2.00
2022-08-11T03:35:04.774Z,2.53
2022-08-11T03:38:00.599Z,2.10
2022-08-11T03:42:01.457Z,2.33
2022-08-11T03:44:50.322Z,2.00
2022-08-11T03:47:53.491Z,2.23
2022-08-11T03:50:44.151Z,2.17
2022-08-11T03:53:22.806Z,2.30
2022-08-11T03:56:25.479Z,2.40
2022-08-11T03:59:26.469Z,2.77
2022-08-11T04:02:41.199Z,2.33
2022-08-11T04:05:39.522Z,2.37
2022-08-11T04:08:42.075Z,2.37
2022-08-11T04:11:37.431Z,2.20
2022-08-11T04:14:53.449Z,2.60
2022-08-11T04:17:51.537Z,2.07
2022-08-11T04:20:59.201Z,2.37
2022-08-11T04:24:35.948Z,2.00
2022-08-11T04:27:37.341Z,2.10
2022-08-11T04:30:31.789Z,2.17
2022-08-11T04:32:59.870Z,2.30
2022-08-11T04:35:52.757Z,2.27
2022-08-11T04:39:15.200Z,2.47
2022-08-11T04:43:00.182Z,2.33
2022-08-11T04:46:30.219Z,2.47
2022-08-11T04:49:52.524Z,2.60
2022-08-11T04:53:07.449Z,2.70
2022-08-11T04:56:26.762Z,1.87
2022-08-11T04:59:24.982Z,2.90
2022-08-11T05:02:36.781Z,2.70
2022-08-11T05:05:32.223Z,2.47
2022-08-11T05:08:32.908Z,2.80
2022-08-11T05:11:30.500Z,2.27
2022-08-11T05:14:31.160Z,2.73
2022-08-11T05:17:30.616Z,2.40
2022-08-11T05:20:16.595Z,2.47
2022-08-11T05:23:10.811Z,2.20
2022-08-11T05:26:42.908Z,2.27
2022-08-11T05:29:21.110Z,2.67
2022-08-11T05:32:19.515Z,2.83
2022-08-11T05:34:54.301Z,3.20
2022-08-11T05:38:05.010Z,3.00
2022-08-11T05:40:53.245Z,2.80
2022-08-11T05:44:20.356Z,3.00
2022-08-11T05:46:47.927Z,2.93
2022-08-11T05:49:34.620Z,2.57
2022-08-11T05:52:28.131Z,3.20
2022-08-11T05:55:26.652Z,2.40
2022-08-11T05:58:05.853Z,3.33
2022-08-11T06:00:43.144Z,3.37
2022-08-11T06:03:11.050Z,3.00
2022-08-11T06:05:44.576Z,2.97
2022-08-11T06:08:14.021Z,3.17
2022-08-11T06:10:44.795Z,3.40
2022-08-11T06:13:17.829Z,3.70
2022-08-11T06:15:52.507Z,4.00
2022-08-11T06:18:19.975Z,4.20
2022-08-11T06:20:55.966Z,3.63
2022-08-11T06:23:32.406Z,3.57
2022-08-11T06:26:01.370Z,4.27
2022-08-11T06:28:40.568Z,3.97
2022-08-11T06:31:25.789Z,3.73
2022-08-11T06:34:01.966Z,4.10
2022-08-11T06:36:40.558Z,4.00
2022-08-11T06:39:33.291Z,4.17
2022-08-11T06:42:09.598Z,3.60
2022-08-11T06:45:00.376Z,4.70
2022-08-11T06:47:28.407Z,3.97
2022-08-11T06:50:18.040Z,4.53
2022-08-11T06:52:48.763Z,4.17
2022-08-11T06:55:58.190Z,3.60
2022-08-11T06:58:51.706Z,4.70
2022-08-11T07:02:07.844Z,4.07
2022-08-11T07:04:49.709Z,3.83
2022-08-11T07:08:33.199Z,4.53
2022-08-11T07:12:01.576Z,3.57
2022-08-11T07:14:50.467Z,3.93
2022-08-11T07:17:23.719Z,4.17
2022-08-11T07:20:17.894Z,4.03
2022-08-11T07:23:15.073Z,3.90
2022-08-11T07:26:10.988Z,4.33
2022-08-11T07:28:58.104Z,4.80
2022-08-11T07:31:50.754Z,3.70
2022-08-11T07:34:38.006Z,3.10
2022-08-11T07:37:16.366Z,2.83
2022-08-11T07:39:45.445Z,2.90
2022-08-11T07:42:16.736Z,2.90
2022-08-11T07:45:06.829Z,3.20
2022-08-11T07:47:55.799Z,3.70
2022-08-11T07:50:42.372Z,3.63
2022-08-11T07:53:10.553Z,4.50
2022-08-11T07:55:50.252Z,4.57
2022-08-11T07:58:45.580Z,4.90
2022-08-11T08:01:43.677Z,4.10
2022-08-11T08:04:34.792Z,4.20
2022-08-11T08:07:23.502Z,3.60
2022-08-11T08:10:14.230Z,3.40
2022-08-11T08:13:02.473Z,3.67
2022-08-11T08:15:49.852Z,3.43
2022-08-11T08:18:25.546Z,4.50
2022-08-11T08:20:57.670Z,3.83
2022-08-11T08:23:34.487Z,3.37
2022-08-11T08:26:26.363Z,2.33
2022-08-11T08:28:55.776Z,3.07
2022-08-11T08:31:23.231Z,2.40
2022-08-11T08:33:51.470Z,2.40
2022-08-11T08:36:22.702Z,4.30
2022-08-11T08:38:54.245Z,2.53
2022-08-11T08:41:30.460Z,2.23
2022-08-11T08:44:34.591Z,2.13
2022-08-11T08:46:56.813Z,2.33
2022-08-11T08:49:32.177Z,1.83
2022-08-11T08:52:25.394Z,2.20
2022-08-11T08:54:58.228Z,1.50
2022-08-11T08:57:29.379Z,2.10
2022-08-11T08:59:57.936Z,2.17
2022-08-11T09:02:34.090Z,2.10
2022-08-11T09:05:04.926Z,1.80
2022-08-11T09:07:38.911Z,2.10
2022-08-11T09:10:10.981Z,1.80
2022-08-11T09:12:42.760Z,2.40
2022-08-11T09:15:12.519Z,2.30
2022-08-11T09:17:51.694Z,2.17
2022-08-11T09:20:27.350Z,2.30
2022-08-11T09:26:30.981Z,2.03
2022-08-11T09:29:00.472Z,2.40
2022-08-11T09:31:39.828Z,2.07
2022-08-11T09:34:10.783Z,2.60
2022-08-11T09:36:59.840Z,2.10
2022-08-11T09:39:48.777Z,2.10
2022-08-11T09:42:23.066Z,2.13
2022-08-11T09:44:53.884Z,1.73
2022-08-11T09:47:31.675Z,2.37
2022-08-11T09:50:02.134Z,2.30
2022-08-11T09:52:35.936Z,2.43
2022-08-11T09:55:11.005Z,2.60
2022-08-11T09:58:05.502Z,2.40
2022-08-11T10:00:40.384Z,2.20
2022-08-11T10:03:24.863Z,1.90
2022-08-11T10:06:17.089Z,2.27
2022-08-11T10:08:46.179Z,2.50
2022-08-11T10:11:18.906Z,2.53
2022-08-11T10:14:33.368Z,2.10
2022-08-11T10:16:55.779Z,2.70
2022-08-11T10:19:24.412Z,2.50
2022-08-11T10:22:13.075Z,2.07
2022-08-11T10:25:02.948Z,2.23
2022-08-11T10:27:40.349Z,2.10
2022-08-11T10:30:37.084Z,2.27
2022-08-11T10:33:36.504Z,2.40
2022-08-11T10:36:16.140Z,2.10
2022-08-11T10:38:46.826Z,1.90
2022-08-11T10:41:33.711Z,1.90
2022-08-11T10:44:03.978Z,2.50
2022-08-11T10:46:50.656Z,2.27
2022-08-11T10:49:19.166Z,2.43
2022-08-11T10:52:05.661Z,2.47
2022-08-11T10:54:53.916Z,2.20
2022-08-11T10:57:41.210Z,2.50
2022-08-11T11:00:15.150Z,2.13
2022-08-11T11:02:44.460Z,2.37
2022-08-11T11:05:32.787Z,1.83
2022-08-11T11:08:39.658Z,1.87
2022-08-11T11:11:08.729Z,2.27
2022-08-11T11:13:57.338Z,2.37
2022-08-11T11:16:45.771Z,2.23
2022-08-11T11:19:20.744Z,2.40
2022-08-11T11:21:53.820Z,1.90
2022-08-11T11:25:12.828Z,2.80
2022-08-11T11:28:06.674Z,1.93
2022-08-11T11:30:49.678Z,2.20
2022-08-11T11:34:08.269Z,1.57
2022-08-11T11:36:54.152Z,1.60
2022-08-11T11:39:30.178Z,1.83
2022-08-11T11:42:05.307Z,2.30
2022-08-11T11:44:33.113Z,2.00
2022-08-11T11:47:01.979Z,2.13
2022-08-11T11:49:32.566Z,1.70
2022-08-11T11:52:00.893Z,2.40
2022-08-11T11:54:34.091Z,1.67
2022-08-11T11:57:22.072Z,2.10
2022-08-11T12:00:09.705Z,1.67
2022-08-11T12:02:40.208Z,2.13
2022-08-11T12:05:10.523Z,2.23
2022-08-11T12:08:10.581Z,1.50
2022-08-11T12:11:16.671Z,1.90
2022-08-11T12:13:47.850Z,1.90
2022-08-11T12:16:34.189Z,1.60
2022-08-11T12:19:15.827Z,1.60
2022-08-11T12:22:02.381Z,1.43
2022-08-11T12:24:51.316Z,1.90
2022-08-11T12:27:25.195Z,1.50
2022-08-11T12:30:01.018Z,1.70
2022-08-11T12:32:32.473Z,1.47
2022-08-11T12:35:00.057Z,1.80
2022-08-11T12:37:39.352Z,1.60
2022-08-11T12:40:49.732Z,1.80
2022-08-11T12:43:42.863Z,2.13
2022-08-11T12:46:27.916Z,1.80
2022-08-11T12:49:21.470Z,2.03
2022-08-11T12:52:13.428Z,1.67
2022-08-11T12:55:13.483Z,1.67
2022-08-11T12:58:05.722Z,1.60
2022-08-11T13:00:51.830Z,2.10
2022-08-11T13:03:40.082Z,1.73
2022-08-11T13:06:08.639Z,1.80
2022-08-11T13:08:40.704Z,1.33
2022-08-11T13:11:55.610Z,1.57
2022-08-11T13:14:16.997Z,1.67
2022-08-11T13:17:04.757Z,1.90
2022-08-11T13:19:34.508Z,1.83
2022-08-11T13:22:05.335Z,1.40
2022-08-11T13:24:34.260Z,2.13
2022-08-11T13:27:02.835Z,1.50
2022-08-11T13:29:30.419Z,2.40
2022-08-11T13:32:00.011Z,1.50
2022-08-11T13:34:31.356Z,1.13
2022-08-11T13:37:05.179Z,1.60
2022-08-11T13:39:34.564Z,1.40
2022-08-11T13:42:04.447Z,1.60
2022-08-11T13:44:36.230Z,1.67
2022-08-11T13:47:06.714Z,1.80
2022-08-11T13:49:40.215Z,1.53
2022-08-11T13:52:15.630Z,1.90
2022-08-11T13:54:46.461Z,1.80
2022-08-11T13:58:09.142Z,1.70
2022-08-11T14:00:13.317Z,1.83
2022-08-11T14:02:57.237Z,1.70
2022-08-11T14:05:39.828Z,1.90
2022-08-11T14:08:37.061Z,1.40
2022-08-11T14:12:22.562Z,1.33
2022-08-11T14:14:22.542Z,1.80
2022-08-11T14:16:54.021Z,1.47
2022-08-11T14:19:26.062Z,1.63
2022-08-11T14:22:08.106Z,1.57
2022-08-11T14:24:49.638Z,2.00
2022-08-11T14:28:30.552Z,2.40
2022-08-11T14:30:27.769Z,1.83
2022-08-11T14:32:56.360Z,1.80
2022-08-11T14:35:28.422Z,1.73
2022-08-11T14:37:59.159Z,1.80
2022-08-11T14:40:45.280Z,1.70
2022-08-11T14:44:14.154Z,1.50
2022-08-11T14:46:37.483Z,1.60
2022-08-11T14:49:05.470Z,1.67
2022-08-11T14:51:34.044Z,2.20
2022-08-11T14:54:20.743Z,1.83
2022-08-11T14:56:48.020Z,1.93
2022-08-11T14:59:15.431Z,1.73
2022-08-11T15:02:01.923Z,1.70
2022-08-11T15:04:36.342Z,1.60
2022-08-11T15:07:04.432Z,1.97
2022-08-11T15:10:09.823Z,2.00
2022-08-11T15:12:34.230Z,2.10
2022-08-11T15:15:23.853Z,1.97
2022-08-11T15:17:57.644Z,1.47
2022-08-11T15:20:46.299Z,1.60
2022-08-11T15:23:32.788Z,1.50
2022-08-11T15:26:13.697Z,1.50
2022-08-11T15:29:08.228Z,1.50
2022-08-11T15:31:49.287Z,2.00
2022-08-11T15:34:39.328Z,1.53
2022-08-11T15:37:27.355Z,1.50
2022-08-11T15:40:31.770Z,1.43
2022-08-11T15:43:46.804Z,1.60
2022-08-11T15:46:22.467Z,2.00
2022-08-11T15:49:03.836Z,2.00
2022-08-11T15:51:37.903Z,1.60
2022-08-11T15:54:19.596Z,1.40
2022-08-11T15:56:51.922Z,1.70
2022-08-11T15:59:42.223Z,1.47
2022-08-11T16:32:52.089Z,1.40
2022-08-11T16:35:43.325Z,1.60
2022-08-11T16:38:31.776Z,1.50
2022-08-11T16:41:02.736Z,1.30
2022-08-11T16:43:50.627Z,1.40
2022-08-11T16:46:39.517Z,1.30
2022-08-11T16:49:34.797Z,1.57
2022-08-11T16:52:04.175Z,1.57
2022-08-11T16:54:34.592Z,1.33
2022-08-11T16:57:29.513Z,1.97
2022-08-11T17:00:01.449Z,1.47
2022-08-11T17:02:55.975Z,1.50
2022-08-11T17:05:54.560Z,1.93
2022-08-11T17:08:56.893Z,1.47
2022-08-11T17:11:51.920Z,1.30
2022-08-11T17:14:45.429Z,1.60
2022-08-11T17:17:21.095Z,1.37
2022-08-11T17:20:40.458Z,2.00
2022-08-11T17:23:00.264Z,1.47
2022-08-11T17:25:28.776Z,1.80
2022-08-11T17:27:56.797Z,1.80
2022-08-11T17:30:46.540Z,1.57
2022-08-11T17:33:33.812Z,1.80
2022-08-11T17:36:02.688Z,1.63
2022-08-11T17:38:30.512Z,1.50
2022-08-11T17:41:23.631Z,1.70
2022-08-11T17:44:12.612Z,1.83
2022-08-11T17:47:05.644Z,1.43
2022-08-11T17:49:38.043Z,1.50
2022-08-11T17:52:33.357Z,1.50
2022-08-11T17:55:51.177Z,2.13
2022-08-11T17:58:28.860Z,1.57
2022-08-11T18:00:57.687Z,2.03
2022-08-11T18:03:29.350Z,2.13
2022-08-11T18:05:57.604Z,1.43
2022-08-11T18:08:44.593Z,1.70
2022-08-11T18:12:10.683Z,1.70
2022-08-11T18:14:39.199Z,1.73
2022-08-11T18:17:25.057Z,1.60
2022-08-11T18:20:10.496Z,1.60
2022-08-11T18:23:03.765Z,1.77
2022-08-11T18:26:06.465Z,2.17
2022-08-11T18:29:06.293Z,1.40
2022-08-11T18:31:56.360Z,2.20
2022-08-11T18:34:55.872Z,1.80
2022-08-11T18:37:51.392Z,2.00
2022-08-11T18:40:46.263Z,2.20
2022-08-11T18:43:35.444Z,2.00
2022-08-11T18:46:25.570Z,1.73
2022-08-11T18:49:20.206Z,2.00
2022-08-11T18:52:12.516Z,1.80
2022-08-11T18:55:01.859Z,1.40
2022-08-11T18:57:53.792Z,1.73
2022-08-11T19:00:45.023Z,1.50
2022-08-11T19:03:43.522Z,1.70
2022-08-11T19:06:40.912Z,2.17
2022-08-11T19:09:31.679Z,2.07
2022-08-11T19:12:19.635Z,1.70
2022-08-11T19:15:08.961Z,1.87
2022-08-11T19:17:59.124Z,2.03
2022-08-11T19:20:48.795Z,2.17
2022-08-11T19:23:43.938Z,2.27
2022-08-11T19:26:30.021Z,1.83
2022-08-11T19:30:07.193Z,1.77
2022-08-11T19:32:22.841Z,2.00
2022-08-11T19:35:09.713Z,2.10
2022-08-11T19:37:58.737Z,1.63
2022-08-11T19:40:45.780Z,2.17
2022-08-11T19:43:32.738Z,1.63
2022-08-11T19:46:20.640Z,2.03
2022-08-11T19:49:13.388Z,2.40
2022-08-11T19:52:01.118Z,2.40
2022-08-11T19:54:52.049Z,1.90
2022-08-11T19:57:40.979Z,1.93
2022-08-11T20:00:36.257Z,1.83
2022-08-11T20:03:28.586Z,2.00
2022-08-11T20:06:23.652Z,2.57
2022-08-11T20:09:12.997Z,2.10
2022-08-11T20:12:03.485Z,2.47
2022-08-11T20:14:53.409Z,2.03
2022-08-11T20:17:43.337Z,2.27
2022-08-11T20:20:31.476Z,2.10
2022-08-11T20:23:22.778Z,2.03
2022-08-11T20:29:17.696Z,2.57
2022-08-11T20:32:06.351Z,2.30
2022-08-11T20:34:57.202Z,3.10
2022-08-11T20:37:48.995Z,2.80
2022-08-11T20:44:05.765Z,2.70
2022-08-11T20:46:48.787Z,3.40
2022-08-11T20:49:44.333Z,3.20
2022-08-11T20:52:41.684Z,2.60
2022-08-11T20:55:46.172Z,2.30
2022-08-11T20:59:11.000Z,2.80
2022-08-11T21:01:45.687Z,2.20
2022-08-11T21:04:33.023Z,2.63
2022-08-11T21:07:28.749Z,2.27
2022-08-11T21:10:23.698Z,2.93
2022-08-11T21:13:26.480Z,2.40
2022-08-11T21:16:26.342Z,2.30
2022-08-11T21:20:00.719Z,2.70
2022-08-11T21:22:34.076Z,2.60
2022-08-11T21:25:21.459Z,3.00
2022-08-11T21:28:10.574Z,2.90
2022-08-11T21:30:58.610Z,2.50
2022-08-11T21:33:49.664Z,3.60
2022-08-11T21:36:37.680Z,2.80
2022-08-11T21:39:25.489Z,2.60
2022-08-11T21:42:15.528Z,2.60
2022-08-11T21:45:03.504Z,2.63
2022-08-11T21:48:01.021Z,2.83
2022-08-11T21:50:47.758Z,2.33
2022-08-11T21:53:35.188Z,2.60
2022-08-11T21:56:22.331Z,2.50
2022-08-11T21:59:15.176Z,3.13
2022-08-11T22:02:03.447Z,2.37
2022-08-11T22:04:54.316Z,2.73
2022-08-11T22:07:41.187Z,2.70
2022-08-11T22:10:41.134Z,3.10
2022-08-11T22:13:32.709Z,3.20
2022-08-11T22:16:19.207Z,2.73
2022-08-11T22:19:07.725Z,2.60
2022-08-11T22:22:02.827Z,2.67
2022-08-11T22:24:52.921Z,2.33
2022-08-11T22:27:40.065Z,2.70
2022-08-11T22:30:28.439Z,2.73
2022-08-11T22:33:19.230Z,3.07
2022-08-11T22:36:14.802Z,2.70
2022-08-11T22:39:03.760Z,3.20
2022-08-11T22:41:50.671Z,2.93
2022-08-11T22:44:36.464Z,3.13
2022-08-11T22:47:27.358Z,3.00
2022-08-11T22:50:16.620Z,3.50
2022-08-11T22:53:03.539Z,3.10
2022-08-11T22:55:50.547Z,2.90
2022-08-11T22:58:40.325Z,3.60
2022-08-11T23:01:27.254Z,3.07
2022-08-11T23:04:15.013Z,2.60
2022-08-11T23:07:01.237Z,3.37
2022-08-11T23:09:47.356Z,3.50
2022-08-11T23:12:33.113Z,3.23
2022-08-11T23:15:20.139Z,3.40
2022-08-11T23:18:06.265Z,3.00
2022-08-11T23:20:54.722Z,3.00
2022-08-11T23:23:42.380Z,3.90
2022-08-11T23:26:30.008Z,2.90
2022-08-11T23:29:17.179Z,2.60
2022-08-11T23:32:06.216Z,3.00
2022-08-11T23:35:37.343Z,3.50
2022-08-11T23:38:04.590Z,2.90
2022-08-11T23:40:50.373Z,3.30
2022-08-11T23:43:39.858Z,2.97
2022-08-11T23:46:25.850Z,3.10
2022-08-11T23:49:24.072Z,2.97
2022-08-11T23:52:11.215Z,3.10
2022-08-11T23:54:58.230Z,3.00
2022-08-11T23:57:48.954Z,3.80
